Time;durP1;ratioP1;P1;durP2;ratioP2;P2;SDS_P1;SDS_P2;PMS_P1;PMS_P2;Temp;Humidity;BMP_temperature;BMP_pressure;BME280_temperature;BME280_humidity;BME280_pressure;Samples;Min_cycle;Max_cycle;Signal;HPM_P1;HPM_P2
2022/04/04 00:00:12;;;;;;;5.90;4.15;;;16.30;72.80;;;;;;5093707;28;20024;-75
2022/04/04 00:02:38;;;;;;;5.00;3.63;;;16.40;72.80;;;;;;5093274;28;20097;-75
2022/04/04 00:05:04;;;;;;;3.75;3.22;;;16.40;72.80;;;;;;5093427;28;20467;-76
2022/04/04 00:07:30;;;;;;;4.15;3.38;;;16.30;72.60;;;;;;5093476;28;20496;-73
2022/04/04 00:09:56;;;;;;;5.03;3.78;;;16.40;72.60;;;;;;5093772;28;20028;-75
2022/04/04 00:12:22;;;;;;;5.40;3.78;;;16.40;72.60;;;;;;5093703;28;20039;-74
2022/04/04 00:14:49;;;;;;;3.75;3.22;;;16.30;72.50;;;;;;5093063;28;20067;-73
2022/04/04 00:17:15;;;;;;;6.53;3.35;;;16.40;72.60;;;;;;5075221;28;20026;-74
2022/04/04 00:19:40;;;;;;;4.15;3.30;;;16.40;72.60;;;;;;5092846;28;20479;-75
2022/04/04 00:22:06;;;;;;;4.57;3.38;;;16.30;72.40;;;;;;5093236;28;20070;-74
2022/04/04 00:24:32;;;;;;;4.50;3.45;;;16.40;72.50;;;;;;5074737;28;20031;-77
2022/04/04 00:26:58;;;;;;;4.78;3.58;;;16.40;72.50;;;;;;5093547;28;20054;-75
2022/04/04 00:29:24;;;;;;;4.47;3.40;;;16.40;72.40;;;;;;5093186;28;20370;-76
2022/04/04 00:31:51;;;;;;;5.22;3.60;;;16.40;72.40;;;;;;5092717;28;20452;-75
2022/04/04 00:34:16;;;;;;;4.13;3.35;;;16.40;72.40;;;;;;5093073;28;20032;-77
2022/04/04 00:36:43;;;;;;;4.13;3.42;;;16.30;72.40;;;;;;5092339;28;20020;-76
2022/04/04 00:39:10;;;;;;;4.03;3.35;;;16.40;72.40;;;;;;5092877;28;20106;-76
2022/04/04 00:41:36;;;;;;;4.95;3.50;;;16.40;72.40;;;;;;5092870;28;20031;-76
2022/04/04 00:44:02;;;;;;;5.13;3.35;;;16.40;72.30;;;;;;5092929;28;20463;-75
2022/04/04 00:46:28;;;;;;;5.15;3.20;;;16.40;72.20;;;;;;5093234;28;20103;-74
2022/04/04 00:48:53;;;;;;;4.43;3.05;;;16.40;72.30;;;;;;5073558;28;20495;-75
2022/04/04 00:51:19;;;;;;;4.45;3.20;;;16.40;72.20;;;;;;5092315;28;20091;-76
2022/04/04 00:53:45;;;;;;;4.25;3.30;;;16.40;72.20;;;;;;5092238;28;20463;-76
2022/04/04 00:56:12;;;;;;;4.88;3.22;;;16.40;72.20;;;;;;5092945;28;20035;-76
2022/04/04 00:58:38;;;;;;;5.18;3.70;;;16.40;72.20;;;;;;5092360;28;20024;-76
2022/04/04 01:01:05;;;;;;;3.90;3.00;;;16.40;72.20;;;;;;5092435;28;20020;-74
2022/04/04 01:03:31;;;;;;;5.18;3.45;;;16.40;72.10;;;;;;5092243;28;20023;-75
2022/04/04 01:05:58;;;;;;;5.07;3.40;;;16.40;72.10;;;;;;5092477;28;20475;-75
2022/04/04 01:08:24;;;;;;;4.03;3.30;;;16.40;72.10;;;;;;5074216;28;20051;-74
2022/04/04 01:10:50;;;;;;;3.97;2.88;;;16.40;72.00;;;;;;5091826;28;20031;-75
2022/04/04 01:13:16;;;;;;;4.82;3.08;;;16.40;72.00;;;;;;5092004;28;20528;-74
2022/04/04 01:15:42;;;;;;;3.72;2.72;;;16.40;72.10;;;;;;5073893;28;20050;-75
2022/04/04 01:18:08;;;;;;;4.28;3.10;;;16.40;72.00;;;;;;5092236;28;20467;-74
2022/04/04 01:20:35;;;;;;;4.05;2.85;;;16.40;71.90;;;;;;5091905;28;20364;-75
2022/04/04 01:23:01;;;;;;;3.55;2.90;;;16.40;71.90;;;;;;5092191;28;20020;-73
2022/04/04 01:25:29;;;;;;;4.15;3.30;;;16.40;71.90;;;;;;5092371;28;20028;-73
2022/04/04 01:27:56;;;;;;;3.38;3.00;;;16.40;72.00;;;;;;5074041;28;20031;-74
2022/04/04 01:30:23;;;;;;;3.50;2.85;;;16.40;72.10;;;;;;5073638;28;20390;-75
2022/04/04 01:32:49;;;;;;;4.30;3.10;;;16.40;72.10;;;;;;5091765;28;20020;-74
2022/04/04 01:35:19;;;;;;;3.53;2.55;;;16.30;71.90;;;;;;5091830;28;20094;-76
2022/04/04 01:37:45;;;;;;;3.80;3.00;;;16.40;72.00;;;;;;5091505;28;20047;-75
2022/04/04 01:40:11;;;;;;;4.10;3.08;;;16.40;71.90;;;;;;5073800;28;20030;-75
2022/04/04 01:42:38;;;;;;;3.53;2.80;;;16.40;71.90;;;;;;5091604;28;20151;-76
2022/04/04 01:45:08;;;;;;;3.70;2.92;;;16.40;71.90;;;;;;5091443;28;20028;-75
2022/04/04 01:47:34;;;;;;;4.65;2.85;;;16.40;71.90;;;;;;5073523;28;20046;-75
2022/04/04 01:50:00;;;;;;;3.67;2.63;;;16.40;71.80;;;;;;5073563;28;20019;-75
2022/04/04 01:52:26;;;;;;;5.13;2.78;;;16.40;71.90;;;;;;5091985;28;20533;-74
2022/04/04 01:54:53;;;;;;;3.17;2.65;;;16.40;71.90;;;;;;5091341;28;20032;-76
2022/04/04 01:57:19;;;;;;;3.85;2.63;;;16.40;71.90;;;;;;5091631;28;20157;-76
2022/04/04 01:59:44;;;;;;;4.85;2.83;;;16.40;71.90;;;;;;5091064;28;20547;-75
2022/04/04 02:02:10;;;;;;;3.63;2.78;;;16.40;71.90;;;;;;5091597;28;20157;-76
2022/04/04 02:04:36;;;;;;;3.17;2.63;;;16.40;71.90;;;;;;5091118;28;20032;-76
2022/04/04 02:07:05;;;;;;;4.38;2.80;;;16.40;71.80;;;;;;5091579;28;20020;-75
2022/04/04 02:09:31;;;;;;;3.35;2.80;;;16.40;71.90;;;;;;5091236;28;20019;-73
2022/04/04 02:11:57;;;;;;;4.07;2.67;;;16.40;71.90;;;;;;5073621;28;20024;-74
2022/04/04 02:14:23;;;;;;;4.90;2.92;;;16.40;71.90;;;;;;5091063;28;20039;-75
2022/04/04 02:16:48;;;;;;;3.75;2.60;;;16.40;71.90;;;;;;5091198;28;20046;-74
2022/04/04 02:19:16;;;;;;;3.58;2.65;;;16.40;71.80;;;;;;5091048;28;20028;-73
2022/04/04 02:21:42;;;;;;;3.00;2.22;;;16.40;71.80;;;;;;5091166;28;20016;-73
2022/04/04 02:24:07;;;;;;;3.72;2.50;;;16.40;71.70;;;;;;5091633;28;20024;-73
2022/04/04 02:26:33;;;;;;;3.13;2.40;;;16.40;71.80;;;;;;5091134;28;20422;-75
2022/04/04 02:28:59;;;;;;;2.65;2.13;;;16.40;71.60;;;;;;5091663;28;20031;-76
2022/04/04 02:31:24;;;;;;;3.28;2.53;;;16.50;71.70;;;;;;5091400;28;20024;-74
2022/04/04 02:33:52;;;;;;;3.42;2.58;;;16.40;71.70;;;;;;5090899;28;20119;-75
2022/04/04 02:36:18;;;;;;;3.53;2.75;;;16.40;71.70;;;;;;5091388;28;20028;-75
2022/04/04 02:38:44;;;;;;;2.85;2.22;;;16.40;71.70;;;;;;5091027;28;20029;-75
2022/04/04 02:41:09;;;;;;;3.97;2.40;;;16.40;71.60;;;;;;5091254;28;20020;-76
2022/04/04 02:43:35;;;;;;;4.15;2.47;;;16.40;71.80;;;;;;5091081;28;20024;-76
2022/04/04 02:46:01;;;;;;;3.60;2.55;;;16.50;71.60;;;;;;5091171;28;20021;-74
2022/04/04 02:48:27;;;;;;;3.78;2.33;;;16.40;71.60;;;;;;5091259;28;20024;-75
2022/04/04 02:50:53;;;;;;;3.67;2.10;;;16.40;71.60;;;;;;5090977;28;20031;-75
2022/04/04 02:53:18;;;;;;;3.33;2.40;;;16.40;71.60;;;;;;5090766;28;20032;-76
2022/04/04 02:58:28;;;;;;;;;;;16.40;71.60;;;;;;5092127;28;20043;-74
2022/04/04 03:00:54;;;;;;;2.00;1.80;;;16.40;71.80;;;;;;5090809;28;19904;-75
2022/04/04 03:03:19;;;;;;;3.30;2.03;;;16.40;71.70;;;;;;5072795;28;20032;-75
2022/04/04 03:05:46;;;;;;;2.42;1.90;;;16.40;71.70;;;;;;5090723;28;20031;-74
2022/04/04 03:08:12;;;;;;;3.40;2.00;;;16.40;71.70;;;;;;5090785;28;20031;-73
2022/04/04 03:10:38;;;;;;;2.63;1.92;;;16.40;71.70;;;;;;5072866;28;20028;-75
2022/04/04 03:13:05;;;;;;;3.53;1.90;;;16.40;71.70;;;;;;5094605;28;20047;-75
2022/04/04 03:15:35;;;;;;;2.97;2.05;;;16.40;71.60;;;;;;5094298;28;20484;-74
2022/04/04 03:18:03;;;;;;;2.95;2.10;;;16.40;71.60;;;;;;5076363;28;20032;-75
2022/04/04 03:20:30;;;;;;;2.95;2.20;;;16.40;71.60;;;;;;5076556;28;20051;-74
2022/04/04 03:22:57;;;;;;;3.25;2.05;;;16.40;71.60;;;;;;5076330;28;20536;-74
2022/04/04 03:25:24;;;;;;;3.28;2.30;;;16.40;71.60;;;;;;5094417;28;20027;-74
2022/04/04 03:27:50;;;;;;;3.17;2.10;;;16.40;71.50;;;;;;5094005;28;20042;-75
2022/04/04 03:30:18;;;;;;;3.33;2.25;;;16.40;71.60;;;;;;5094001;28;20020;-75
2022/04/04 03:32:49;;;;;;;3.40;2.22;;;16.40;71.40;;;;;;5094099;28;20027;-74
2022/04/04 03:35:15;;;;;;;3.85;2.20;;;16.40;71.50;;;;;;5076022;28;20028;-75
2022/04/04 03:37:42;;;;;;;2.83;2.00;;;16.40;72.20;;;;;;5093970;28;20567;-76
2022/04/04 03:40:12;;;;;;;3.22;1.80;;;16.40;71.70;;;;;;5075927;28;20119;-73
2022/04/04 03:42:38;;;;;;;2.53;1.73;;;16.40;71.60;;;;;;5093729;28;20035;-74
2022/04/04 03:45:05;;;;;;;3.45;1.88;;;16.40;71.70;;;;;;5093652;28;20016;-74
2022/04/04 03:47:31;;;;;;;2.33;1.90;;;16.40;71.70;;;;;;5093816;28;20063;-74
2022/04/04 03:49:59;;;;;;;3.10;2.17;;;16.40;71.70;;;;;;5094219;28;20023;-74
2022/04/04 03:52:25;;;;;;;3.47;1.80;;;16.40;71.60;;;;;;5075741;28;20028;-74
2022/04/04 03:54:50;;;;;;;3.75;1.77;;;16.40;71.60;;;;;;5093420;28;20108;-76
2022/04/04 03:57:16;;;;;;;2.42;1.65;;;16.40;71.50;;;;;;5093778;28;20515;-75
2022/04/04 03:59:43;;;;;;;3.20;1.90;;;16.40;71.60;;;;;;5093231;28;20016;-74
2022/04/04 04:02:09;;;;;;;2.97;1.83;;;16.40;71.50;;;;;;5093653;28;20028;-75
2022/04/04 04:04:34;;;;;;;2.35;1.70;;;16.40;71.50;;;;;;5093248;28;20047;-75
2022/04/04 04:07:00;;;;;;;3.20;1.73;;;16.40;71.50;;;;;;5093691;28;20020;-74
2022/04/04 04:09:26;;;;;;;3.97;1.80;;;16.40;71.60;;;;;;5093772;28;20026;-73
2022/04/04 04:11:54;;;;;;;3.15;1.75;;;16.40;71.40;;;;;;5093269;28;20025;-72
2022/04/04 04:14:20;;;;;;;3.10;1.92;;;16.40;71.50;;;;;;5075109;28;20446;-73
2022/04/04 04:16:46;;;;;;;3.05;1.70;;;16.40;71.60;;;;;;5093304;28;20028;-74
2022/04/04 04:20:19;;;;;;;4.53;1.88;;;16.40;71.50;;;;;;5093436;28;20042;-76
2022/04/04 04:21:58;;;;;;;3.40;2.00;;;16.40;71.60;;;;;;5093527;28;20024;-75
2022/04/04 04:24:24;;;;;;;3.17;2.00;;;16.40;71.60;;;;;;5093196;28;20017;-74
2022/04/04 04:26:50;;;;;;;3.33;1.70;;;16.40;71.60;;;;;;5092915;28;20434;-75
2022/04/04 04:29:16;;;;;;;2.50;1.65;;;16.40;71.50;;;;;;5092763;28;20458;-75
2022/04/04 04:31:42;;;;;;;4.18;2.00;;;16.40;71.60;;;;;;5092821;28;20042;-75
2022/04/04 04:34:08;;;;;;;2.50;1.65;;;16.40;71.60;;;;;;5093058;28;20036;-74
2022/04/04 04:36:36;;;;;;;3.63;1.77;;;16.40;71.60;;;;;;5092662;28;20027;-75
2022/04/04 04:39:02;;;;;;;2.45;1.52;;;16.40;71.80;;;;;;5074852;28;20049;-74
2022/04/04 04:41:28;;;;;;;3.55;1.98;;;16.40;71.70;;;;;;5092585;28;20103;-73
2022/04/04 04:43:53;;;;;;;2.17;1.90;;;16.40;71.90;;;;;;5074422;28;20020;-75
2022/04/04 04:46:19;;;;;;;3.13;1.65;;;16.40;71.90;;;;;;5092820;28;20027;-74
2022/04/04 04:48:44;;;;;;;2.35;1.80;;;16.40;71.90;;;;;;5092531;28;20024;-74
2022/04/04 04:51:10;;;;;;;1.88;1.67;;;16.40;71.90;;;;;;5092900;28;20043;-74
2022/04/04 04:53:37;;;;;;;3.00;2.00;;;16.40;71.80;;;;;;5092434;28;20024;-73
2022/04/04 04:56:03;;;;;;;1.88;1.50;;;16.40;71.90;;;;;;5092184;28;20038;-73
2022/04/04 04:58:30;;;;;;;3.47;2.00;;;16.40;71.90;;;;;;5092934;28;20020;-74
2022/04/04 05:00:56;;;;;;;2.17;1.77;;;16.40;71.90;;;;;;5092007;28;20042;-72
2022/04/04 05:03:24;;;;;;;2.38;1.67;;;16.40;71.90;;;;;;5092267;28;20532;-74
2022/04/04 05:05:50;;;;;;;2.38;1.63;;;16.40;72.00;;;;;;5092044;28;20023;-74
2022/04/04 05:08:16;;;;;;;2.78;1.88;;;16.40;72.10;;;;;;5092480;28;20025;-74
2022/04/04 05:10:41;;;;;;;2.20;1.70;;;16.40;72.10;;;;;;5091161;28;20021;-74
2022/04/04 05:13:07;;;;;;;2.10;1.70;;;16.40;72.00;;;;;;5092217;28;20028;-74
2022/04/04 05:15:33;;;;;;;2.92;1.60;;;16.40;72.20;;;;;;5073936;28;20035;-75
2022/04/04 05:17:58;;;;;;;3.75;1.55;;;16.40;72.10;;;;;;5092597;28;20020;-76
2022/04/04 05:20:24;;;;;;;2.88;1.63;;;16.40;72.10;;;;;;5092131;28;20052;-74
2022/04/04 05:22:50;;;;;;;2.33;1.52;;;16.40;72.30;;;;;;5091876;28;20207;-73
2022/04/04 05:25:15;;;;;;;4.15;1.92;;;16.40;72.30;;;;;;5091882;28;20104;-73
2022/04/04 05:27:41;;;;;;;3.28;1.85;;;16.40;72.40;;;;;;5073656;28;20060;-73
2022/04/04 05:30:08;;;;;;;2.80;2.00;;;16.40;72.40;;;;;;5072994;28;20020;-73
2022/04/04 05:32:35;;;;;;;4.43;2.15;;;16.40;72.40;;;;;;5091197;28;20537;-77
2022/04/04 05:35:08;;;;;;;2.40;1.77;;;16.40;72.50;;;;;;5091275;28;20411;-77
2022/04/04 05:37:34;;;;;;;3.40;2.30;;;16.50;72.50;;;;;;5091748;28;20095;-73
2022/04/04 05:40:01;;;;;;;4.28;1.88;;;16.50;72.60;;;;;;5092229;28;20451;-75
2022/04/04 05:42:28;;;;;;;3.30;2.00;;;16.50;72.60;;;;;;5090768;28;20517;-74
2022/04/04 05:44:53;;;;;;;4.72;2.00;;;16.40;72.60;;;;;;5091566;28;20032;-78
2022/04/04 05:47:20;;;;;;;3.53;2.00;;;16.40;74.40;;;;;;5091738;28;20376;-75
2022/04/04 05:49:48;;;;;;;6.80;4.80;;;16.40;75.00;;;;;;5091168;28;20035;-77
2022/04/04 05:52:15;;;;;;;4.38;3.13;;;16.50;78.20;;;;;;5073553;28;20024;-76
2022/04/04 05:54:54;;;;;;;25.17;16.67;;;16.50;75.80;;;;;;5091325;28;20028;-75
2022/04/04 05:57:24;;;;;;;16.95;12.48;;;16.60;76.70;;;;;;5091428;28;20940;-77
2022/04/04 05:59:50;;;;;;;25.52;19.77;;;16.60;77.00;;;;;;5081940;28;20119;-75
2022/04/04 06:02:17;;;;;;;13.05;8.98;;;16.60;77.90;;;;;;5091480;28;20035;-73
2022/04/04 06:04:42;;;;;;;11.73;7.90;;;16.60;76.70;;;;;;5091191;28;20039;-75
2022/04/04 06:07:08;;;;;;;10.43;7.38;;;16.80;75.50;;;;;;5090854;28;20107;-74
2022/04/04 06:09:33;;;;;;;9.70;6.97;;;16.80;77.20;;;;;;5091192;28;20016;-74
2022/04/04 06:11:59;;;;;;;7.60;6.18;;;16.80;75.90;;;;;;5091795;28;20376;-75
2022/04/04 06:14:25;;;;;;;7.90;5.60;;;16.80;78.40;;;;;;5091090;28;20479;-78
2022/04/04 06:16:50;;;;;;;7.90;5.72;;;16.90;75.90;;;;;;5091299;28;20028;-74
2022/04/04 06:19:16;;;;;;;5.88;5.10;;;16.80;76.20;;;;;;5091630;28;20471;-74
2022/04/04 06:21:42;;;;;;;10.68;5.18;;;16.90;75.70;;;;;;5091406;28;20048;-75
2022/04/04 06:24:08;;;;;;;8.05;5.07;;;16.90;75.40;;;;;;5090700;28;20423;-74
2022/04/04 06:26:34;;;;;;;6.82;4.68;;;16.90;75.40;;;;;;5072996;28;20103;-74
2022/04/04 06:28:59;;;;;;;7.85;4.60;;;16.90;75.30;;;;;;5091717;28;20024;-74
2022/04/04 06:31:25;;;;;;;8.10;4.72;;;16.90;75.10;;;;;;5091529;28;20035;-74
2022/04/04 06:33:51;;;;;;;6.80;4.50;;;16.80;75.50;;;;;;5091011;28;20107;-73
2022/04/04 06:36:16;;;;;;;5.00;3.70;;;16.70;75.60;;;;;;5091378;28;20459;-74
2022/04/04 06:38:42;;;;;;;5.05;3.83;;;16.80;75.60;;;;;;5090457;28;20428;-76
2022/04/04 06:41:08;;;;;;;6.28;4.10;;;16.70;75.30;;;;;;5091286;28;20118;-73
2022/04/04 06:43:34;;;;;;;5.75;3.70;;;16.70;75.40;;;;;;5087689;28;20103;-73
2022/04/04 06:46:02;;;;;;;5.95;3.92;;;16.70;75.60;;;;;;5096421;28;20108;-74
2022/04/04 06:48:28;;;;;;;5.07;3.97;;;16.60;75.40;;;;;;5095536;28;20028;-74
2022/04/04 06:50:54;;;;;;;6.38;3.35;;;16.60;77.90;;;;;;5076949;28;20024;-72
2022/04/04 06:53:21;;;;;;;5.05;3.13;;;16.60;75.80;;;;;;5095044;28;20553;-74
2022/04/04 06:55:47;;;;;;;4.68;3.47;;;16.70;76.20;;;;;;5076717;28;20028;-72
2022/04/04 06:58:13;;;;;;;5.03;3.42;;;16.60;75.70;;;;;;5094733;28;20525;-75
2022/04/04 07:00:39;;;;;;;5.68;3.25;;;16.60;75.80;;;;;;5094608;28;20036;-76
2022/04/04 07:03:07;;;;;;;6.13;3.40;;;16.50;79.50;;;;;;5094558;28;20028;-73
2022/04/04 07:05:33;;;;;;;4.97;3.17;;;16.60;81.20;;;;;;5094010;28;20016;-76
2022/04/04 07:07:58;;;;;;;4.75;3.53;;;16.60;76.70;;;;;;5076442;28;20020;-73
2022/04/04 07:10:24;;;;;;;6.75;3.00;;;16.60;76.20;;;;;;5094424;28;20074;-73
2022/04/04 07:12:50;;;;;;;4.47;2.90;;;16.60;76.70;;;;;;5094363;28;20063;-74
2022/04/04 07:15:15;;;;;;;5.10;3.00;;;16.60;76.50;;;;;;5094216;28;20093;-75
2022/04/04 07:17:43;;;;;;;6.10;2.95;;;16.60;76.50;;;;;;5093965;28;20015;-75
2022/04/04 07:20:10;;;;;;;5.65;2.72;;;16.60;76.30;;;;;;5094551;28;20074;-74
2022/04/04 07:22:37;;;;;;;5.55;3.10;;;16.60;76.40;;;;;;5094158;28;20415;-75
2022/04/04 07:25:04;;;;;;;5.07;2.80;;;16.60;76.70;;;;;;5094422;28;20024;-75
2022/04/04 07:27:30;;;;;;;5.00;3.15;;;16.60;76.50;;;;;;5093663;28;20032;-75
2022/04/04 07:29:57;;;;;;;5.03;2.85;;;16.60;76.30;;;;;;5094674;28;20476;-74
2022/04/04 07:32:22;;;;;;;5.38;2.75;;;16.60;76.50;;;;;;5075664;28;20031;-74
2022/04/04 07:34:48;;;;;;;3.53;2.65;;;16.60;76.20;;;;;;5093856;28;20036;-74
2022/04/04 07:37:14;;;;;;;5.85;3.00;;;16.60;76.40;;;;;;5094157;28;20016;-75
2022/04/04 07:39:40;;;;;;;5.95;2.75;;;16.50;76.40;;;;;;5093894;28;20024;-74
2022/04/04 07:42:06;;;;;;;4.35;2.45;;;16.60;76.00;;;;;;5094315;28;20407;-75
2022/04/04 07:44:31;;;;;;;5.03;2.92;;;16.60;76.20;;;;;;5093115;28;20024;-74
2022/04/04 07:46:57;;;;;;;5.13;2.70;;;16.50;76.10;;;;;;5094060;28;20353;-74
2022/04/04 07:49:23;;;;;;;4.65;2.78;;;16.50;76.30;;;;;;5076166;28;20479;-74
2022/04/04 07:51:49;;;;;;;4.88;2.40;;;16.50;76.10;;;;;;5071142;28;20032;-75
2022/04/04 07:54:14;;;;;;;4.57;3.00;;;16.50;76.20;;;;;;5093240;28;20040;-74
2022/04/04 07:56:40;;;;;;;4.85;2.85;;;16.50;76.20;;;;;;5092591;28;20024;-75
2022/04/04 07:59:06;;;;;;;2.90;2.20;;;16.50;76.00;;;;;;5075825;28;20475;-74
2022/04/04 08:01:32;;;;;;;4.07;2.38;;;16.50;76.20;;;;;;5093527;28;20027;-74
2022/04/04 08:03:57;;;;;;;3.97;2.10;;;16.40;76.30;;;;;;5075762;28;20407;-74
2022/04/04 08:06:23;;;;;;;3.22;2.17;;;16.40;76.30;;;;;;5093611;28;20067;-74
2022/04/04 08:08:49;;;;;;;2.75;2.10;;;16.40;76.40;;;;;;5075231;28;20386;-74
2022/04/04 08:11:14;;;;;;;3.97;2.30;;;16.40;76.50;;;;;;5093173;28;20522;-74
2022/04/04 08:13:44;;;;;;;3.15;2.13;;;16.40;76.50;;;;;;5092568;28;20028;-74
2022/04/04 08:16:09;;;;;;;2.72;2.30;;;16.40;76.40;;;;;;5093192;28;20024;-74
2022/04/04 08:18:35;;;;;;;3.10;1.90;;;16.40;76.60;;;;;;5093019;28;20498;-74
2022/04/04 08:21:01;;;;;;;4.05;2.40;;;16.40;76.70;;;;;;5093338;28;20353;-75
2022/04/04 08:23:31;;;;;;;3.88;1.90;;;16.40;76.50;;;;;;5092994;28;20039;-74
2022/04/04 08:25:57;;;;;;;4.43;2.22;;;16.40;76.50;;;;;;5093442;28;20023;-73
2022/04/04 08:28:23;;;;;;;3.67;2.05;;;16.40;76.50;;;;;;5093305;28;20472;-74
2022/04/04 08:30:50;;;;;;;3.25;1.90;;;16.40;76.70;;;;;;5092273;28;20028;-74
2022/04/04 08:33:17;;;;;;;3.65;1.98;;;16.40;76.70;;;;;;5074514;28;20479;-75
2022/04/04 08:35:43;;;;;;;4.22;2.17;;;16.40;76.70;;;;;;5092664;28;20103;-74
2022/04/04 08:38:08;;;;;;;4.38;2.10;;;16.30;76.70;;;;;;5092894;28;20051;-74
2022/04/04 08:40:37;;;;;;;2.97;2.00;;;16.30;76.60;;;;;;5092437;28;20448;-74
2022/04/04 08:43:03;;;;;;;2.55;1.98;;;16.40;76.70;;;;;;5074719;28;20020;-74
2022/04/04 08:45:29;;;;;;;2.42;1.83;;;16.30;76.60;;;;;;5093115;28;20024;-74
2022/04/04 08:47:55;;;;;;;4.05;2.00;;;16.30;76.70;;;;;;5092845;28;20101;-74
2022/04/04 08:50:21;;;;;;;4.43;1.92;;;16.30;76.60;;;;;;5092644;28;20019;-74
2022/04/04 08:52:48;;;;;;;3.45;1.95;;;16.30;76.80;;;;;;5092359;28;20020;-74
2022/04/04 08:55:15;;;;;;;3.72;1.90;;;16.30;76.70;;;;;;5074747;28;20040;-74
2022/04/04 08:57:41;;;;;;;4.07;2.00;;;16.20;76.80;;;;;;5074210;28;20505;-74
2022/04/04 09:00:10;;;;;;;3.15;1.80;;;16.30;76.90;;;;;;5092633;28;20080;-74
2022/04/04 09:02:36;;;;;;;3.05;1.85;;;16.20;76.70;;;;;;5074018;28;20158;-74
2022/04/04 09:05:05;;;;;;;3.25;1.80;;;16.20;76.70;;;;;;5092107;28;20081;-74
2022/04/04 09:07:31;;;;;;;3.35;1.73;;;16.20;76.70;;;;;;5091456;28;20016;-74
2022/04/04 09:09:57;;;;;;;2.38;1.73;;;16.20;76.70;;;;;;5091816;28;20031;-74
2022/04/04 09:12:26;;;;;;;1.88;1.30;;;16.30;76.60;;;;;;5092298;28;20020;-74
2022/04/04 09:14:57;;;;;;;3.35;1.60;;;16.30;76.70;;;;;;5073923;28;20526;-74
2022/04/04 09:17:27;;;;;;;2.65;1.80;;;16.30;76.60;;;;;;5074125;28;20039;-74
2022/04/04 09:19:53;;;;;;;3.38;1.90;;;16.30;76.50;;;;;;5091798;28;20020;-74
2022/04/04 09:22:20;;;;;;;2.80;1.73;;;16.30;76.70;;;;;;5091509;28;20039;-73
2022/04/04 09:24:51;;;;;;;4.13;1.90;;;16.30;76.50;;;;;;5073469;28;20016;-74
2022/04/04 09:27:23;;;;;;;3.33;1.77;;;16.30;76.50;;;;;;5074807;28;20085;-79
2022/04/04 09:29:51;;;;;;;3.28;1.67;;;16.20;76.80;;;;;;5099720;28;20024;-77
2022/04/04 09:32:17;;;;;;;3.00;1.80;;;16.20;77.30;;;;;;5092063;28;20051;-73
2022/04/04 09:34:53;;;;;;;2.75;1.60;;;16.20;76.90;;;;;;5091041;28;20060;-73
2022/04/04 09:37:23;;;;;;;2.70;1.75;;;16.20;76.60;;;;;;5091981;28;20022;-73
2022/04/04 09:39:50;;;;;;;2.60;1.73;;;16.20;76.60;;;;;;5091634;28;20027;-72
2022/04/04 09:42:18;;;;;;;3.38;1.60;;;16.30;76.70;;;;;;5073787;28;20028;-73
2022/04/04 09:45:00;;;;;;;3.65;1.48;;;16.20;76.70;;;;;;5091254;28;20024;-73
2022/04/04 09:47:44;;;;;;;3.25;1.73;;;16.20;76.60;;;;;;5092199;28;20085;-73
2022/04/04 09:50:09;;;;;;;3.85;1.77;;;16.20;76.60;;;;;;5073636;28;20382;-73
2022/04/04 09:52:51;;;;;;;3.03;1.52;;;16.20;76.60;;;;;;5091522;28;20032;-73
2022/04/04 09:55:28;;;;;;;3.17;1.52;;;16.20;76.60;;;;;;5091605;28;20028;-73
2022/04/04 09:57:56;;;;;;;3.25;1.65;;;16.20;76.70;;;;;;5091306;28;20035;-73
2022/04/04 10:00:23;;;;;;;2.65;1.50;;;16.20;76.60;;;;;;5091579;28;20020;-73
2022/04/04 10:02:50;;;;;;;2.67;2.00;;;16.20;76.70;;;;;;5091225;28;20427;-73
2022/04/04 10:05:17;;;;;;;4.78;1.73;;;16.20;76.70;;;;;;5091629;28;20511;-73
2022/04/04 10:07:43;;;;;;;2.45;1.80;;;16.20;76.80;;;;;;5072814;28;20025;-73
2022/04/04 10:10:08;;;;;;;3.35;1.92;;;16.20;76.80;;;;;;5091443;28;20519;-73
2022/04/04 10:12:35;;;;;;;4.00;1.77;;;16.20;76.90;;;;;;5091263;28;20056;-73
2022/04/04 10:15:03;;;;;;;2.53;1.50;;;16.20;76.90;;;;;;5091134;28;20469;-73
2022/04/04 10:17:30;;;;;;;4.13;1.35;;;16.20;77.00;;;;;;5069259;28;20115;-73
2022/04/04 10:19:57;;;;;;;2.17;1.35;;;16.20;76.90;;;;;;5092312;28;20035;-73
2022/04/04 10:22:23;;;;;;;5.50;1.80;;;16.20;76.90;;;;;;5095774;28;20016;-73
2022/04/04 10:24:50;;;;;;;3.33;1.80;;;16.20;76.90;;;;;;5095245;28;20039;-73
2022/04/04 10:27:20;;;;;;;3.75;1.80;;;16.20;76.90;;;;;;5095103;28;20361;-73
2022/04/04 10:29:47;;;;;;;3.45;1.67;;;16.20;77.00;;;;;;5095524;28;20476;-72
2022/04/04 10:32:28;;;;;;;3.17;1.70;;;16.20;77.20;;;;;;5095504;28;20468;-72
2022/04/04 10:34:55;;;;;;;2.88;1.60;;;16.10;77.10;;;;;;5094713;28;20035;-73
2022/04/04 10:37:25;;;;;;;6.60;2.75;;;16.20;77.30;;;;;;5094966;28;20055;-73
2022/04/04 10:39:51;;;;;;;4.82;2.10;;;16.20;81.60;;;;;;5093937;28;20020;-72
2022/04/04 10:42:41;;;;;;;5.95;2.42;;;16.10;88.20;;;;;;5094821;28;20020;-78
2022/04/04 10:45:11;;;;;;;4.40;1.98;;;16.40;86.40;;;;;;5089120;28;20031;-74
2022/04/04 10:47:42;;;;;;;3.72;1.55;;;16.90;79.80;;;;;;5095046;28;20024;-74
2022/04/04 10:50:22;;;;;;;4.45;1.90;;;17.20;79.70;;;;;;5076828;28;20020;-73
2022/04/04 10:52:48;;;;;;;4.20;1.70;;;17.40;81.10;;;;;;5076690;28;20028;-72
2022/04/04 10:55:25;;;;;;;5.40;1.70;;;17.50;84.80;;;;;;5093684;28;20520;-72
2022/04/04 10:57:52;;;;;;;4.80;1.58;;;17.40;81.60;;;;;;5094551;28;20039;-73
2022/04/04 11:00:30;;;;;;;2.35;1.20;;;17.60;81.40;;;;;;5094021;28;20430;-73
2022/04/04 11:02:55;;;;;;;3.60;1.40;;;17.90;80.10;;;;;;5095100;28;20028;-73
2022/04/04 11:08:06;;;;;;;3.45;1.58;;;18.10;78.70;;;;;;5095139;28;20035;-72
2022/04/04 11:10:47;;;;;;;3.80;1.60;;;18.20;78.40;;;;;;5094563;28;20380;-73
2022/04/04 11:13:15;;;;;;;3.88;1.48;;;18.10;78.10;;;;;;5076572;28;20384;-72
2022/04/04 11:15:45;;;;;;;2.30;1.13;;;18.10;78.00;;;;;;5094313;28;20534;-73
2022/04/04 11:18:12;;;;;;;4.35;1.50;;;17.90;78.10;;;;;;5094718;28;20031;-73
2022/04/04 11:20:50;;;;;;;2.85;1.40;;;17.70;78.40;;;;;;5094167;28;20024;-73
2022/04/04 11:23:17;;;;;;;4.75;1.50;;;17.60;78.80;;;;;;5094461;28;20036;-73
2022/04/04 11:25:52;;;;;;;3.15;1.38;;;17.50;78.60;;;;;;5094103;28;20057;-72
2022/04/04 11:28:24;;;;;;;3.78;1.40;;;17.40;78.90;;;;;;5059716;28;20028;-73
2022/04/04 11:31:01;;;;;;;5.05;1.70;;;17.30;78.90;;;;;;5094137;28;20476;-73
2022/04/04 11:33:28;;;;;;;5.15;1.50;;;17.30;79.00;;;;;;5094037;28;20032;-73
2022/04/04 11:35:54;;;;;;;4.05;1.58;;;17.20;79.10;;;;;;5093879;28;20100;-73
2022/04/04 11:38:20;;;;;;;2.30;1.20;;;17.20;79.10;;;;;;5094169;28;20052;-72
2022/04/04 11:40:54;;;;;;;2.70;1.40;;;17.10;79.20;;;;;;5093940;28;20024;-72
2022/04/04 11:43:21;;;;;;;5.15;1.45;;;17.10;79.20;;;;;;5094153;28;20039;-73
2022/04/04 11:45:49;;;;;;;2.42;1.40;;;17.10;79.20;;;;;;5075706;28;20115;-72
2022/04/04 11:48:23;;;;;;;4.20;1.35;;;17.00;79.30;;;;;;5075839;28;20541;-73
2022/04/04 11:50:51;;;;;;;4.30;1.50;;;17.00;79.30;;;;;;5093982;28;20056;-73
2022/04/04 11:53:25;;;;;;;3.00;1.40;;;17.00;79.30;;;;;;5075724;28;20085;-73
2022/04/04 11:55:52;;;;;;;3.40;1.55;;;16.90;79.50;;;;;;5093713;28;20039;-74
2022/04/04 11:58:20;;;;;;;2.13;1.30;;;16.90;79.50;;;;;;5093835;28;20113;-74
2022/04/04 12:00:55;;;;;;;2.55;1.20;;;16.90;79.60;;;;;;5093416;28;20024;-73
2022/04/04 12:03:24;;;;;;;1.90;1.20;;;16.90;79.70;;;;;;5093533;28;20024;-74
2022/04/04 12:05:50;;;;;;;3.42;1.55;;;16.80;79.60;;;;;;5093430;28;20053;-74
2022/04/04 12:08:21;;;;;;;2.88;1.23;;;16.80;79.70;;;;;;5093634;28;20020;-74
2022/04/04 12:10:49;;;;;;;3.63;1.55;;;16.80;79.70;;;;;;5075258;28;20030;-73
2022/04/04 12:13:21;;;;;;;3.45;1.60;;;16.80;79.70;;;;;;5093569;28;20016;-73
2022/04/04 12:15:49;;;;;;;3.88;1.40;;;16.80;79.80;;;;;;5075599;28;20515;-73
2022/04/04 12:18:26;;;;;;;2.65;1.38;;;16.70;79.90;;;;;;5093069;28;20024;-73
2022/04/04 12:20:54;;;;;;;3.25;1.40;;;16.70;79.80;;;;;;5090840;28;20024;-74
2022/04/04 12:26:10;;;;;;;2.25;1.50;;;16.70;80.00;;;;;;5093207;28;20042;-72
2022/04/04 12:28:38;;;;;;;3.30;1.30;;;16.70;80.10;;;;;;5092530;28;20020;-73
2022/04/04 12:31:16;;;;;;;3.38;1.48;;;16.60;80.00;;;;;;5092984;28;20020;-74
2022/04/04 12:33:42;;;;;;;3.92;1.27;;;16.60;80.10;;;;;;5074550;28;20047;-75
2022/04/04 12:36:09;;;;;;;2.85;1.30;;;16.60;80.20;;;;;;5092216;28;20040;-73
2022/04/04 12:38:37;;;;;;;2.90;1.30;;;16.60;80.30;;;;;;5092349;28;20035;-74
2022/04/04 12:41:05;;;;;;;2.42;1.10;;;16.60;80.80;;;;;;5092150;28;20036;-74
2022/04/04 12:43:31;;;;;;;2.92;1.23;;;16.60;80.30;;;;;;5073253;28;20081;-74
2022/04/04 12:45:57;;;;;;;2.75;1.13;;;16.60;80.30;;;;;;5092742;28;20039;-74
2022/04/04 12:48:41;;;;;;;2.33;1.05;;;16.60;80.30;;;;;;5074534;28;20035;-73
2022/04/04 12:51:07;;;;;;;3.05;1.42;;;16.60;80.30;;;;;;5074342;28;20104;-76
2022/04/04 12:53:53;;;;;;;1.65;1.20;;;16.60;80.30;;;;;;5092350;28;20035;-76
2022/04/04 12:56:19;;;;;;;1.70;1.13;;;16.60;80.40;;;;;;5092017;28;20373;-76